PACV METAR and TAF weather

Enter ICAO airport designator
Station Type Date Time Source
PACV METAR 2019/12/06 08:53 UTC NOAA

PACV 060853Z 00000KT 10SM BKN075 M05/M07 A2974 RMK AO2 SLP071 T10501067 410171072 53007


Station Type Date Time Source
PACV Decoded METAR 2019/12/06 08:53 UTC NOAA

MERLE K. SMITH AIRPORT, AK, United States (PACV) 60-30N 145-29W 13M
Dec 06, 2019 - 03:53 AM EST / 2019.12.06 0853 UTC
Wind: Calm:0
Visibility: 10 mile(s):0
Sky conditions: mostly cloudy
Temperature: 23.0 F (-5.0 C)
Dew Point: 19.9 F (-6.7 C)
Relative Humidity: 87%
Pressure (altimeter): 29.74 in. Hg (1007 hPa)
Pressure tendency: 0.02 inches (0.7 hPa) higher than three hours ago
ob: PACV 060853Z 00000KT 10SM BKN075 M05/M07 A2974 RMK AO2 SLP071 T10501067 410171072 53007
cycle: 9

Station Type Date Time Source
PACV TAF 2019/12/06 06:51 UTC NOAA

TAF PACV 060545Z 0606/0706 VRB03KT P6SM FEW050 BKN090
FM061200 VRB04KT P6SM SCT035 OVC050
FM070300 08010KT 5SM -RASN BKN020 OVC035

Example: see airport list